Palma Campania, Italy

7:13 AM CEST on September 03, 2015 (GMT +0200)
Palma C. - Staz. IZ8GEL | | Change Station
CLOSE
Current Station
Personal Weather Station
Location: Palma Campania, NAPOLI
Elevation: 168 ft
Nearby Weather Stations

Elev 168 ft 40.87 °N, 14.55 °E | Updated 1 second ago

Partly Cloudy
Partly Cloudy
70.3 °F
Feels Like 70.3 °F
N
0.0
Wind Variable Wind from East
Gusts 0.0 mph

Today
High -- | Low -- °F
--% Chance of Precip.
Yesterday
High -- | Low -- °F
Precip. -- in
6:30 AM 7:31 PM
Waning Gibbous, 74% visible
Pressure 29.89 in
Visibility 3.1 miles
Clouds Few 3000 ft
Dew Point 65 °F
Humidity 83%
Rainfall 0.00 in
Snow Depth Not available.
UV 0 out of 12
Pollen Not available.
Air Quality Not available.
Flu Activity Not available.
METAR LIRM 030455Z 01002KT 5000 BR FEW030 20/18 Q1012 RMK FEW VIS MIN 5000 WIND THR06 02003KT WHT
Pressure 29.89 in
Visibility 3.1 miles
Clouds Few 3000 ft
Dew Point 65 °F
Humidity 83%
Rainfall 0.00 in
Snow Depth Not available.
UV 0 out of 12
Pollen Not available.
Air Quality Not available.
Flu Activity Not available.
METAR LIRM 030455Z 01002KT 5000 BR FEW030 20/18 Q1012 RMK FEW VIS MIN 5000 WIND THR06 02003KT WHT

10-Day Weather Forecast

×

Almanac

Astronomy

Sep. 03, 2015 Rise Set
Actual Time
Civil Twilight
Nautical Twilight
Astronomical Twilight
Moon
Length of Visible Light
Length of Day
Tomorrow will be .
, % of the Moon is Illuminated

Today's Extremes

Country Highs Country Lows

Community

WunderPhotos

Upload Photos

1,851,914 photos uploaded!

WunderBlogs® & News

Nearby

Air Quality

  Air Quality AQ Index Pollutant
Not available.

Snow Depth

Station Depth Elevation

Earthquake Activity

City Distance Mag. Time & Date
Minimum magnitude displayed is 2.5.

Coastal Water Temperatures

Place Temperature

Stations

Nearby Weather Stations

Station Location Temp. Windchill Dew Point Humidity Wind Precip. Elev Updated Type